sensor_id;sensor_type;location;lat;lon;timestamp;P1;durP1;ratioP1;P2;durP2;ratioP2
60919;SDS011;59039;52.108;19.942;2022-12-01T00:01:38;48.50;;;22.30;;
60919;SDS011;59039;52.108;19.942;2022-12-01T00:04:03;52.10;;;22.50;;
60919;SDS011;59039;52.108;19.942;2022-12-01T00:06:28;53.40;;;22.80;;
60919;SDS011;59039;52.108;19.942;2022-12-01T00:08:54;49.10;;;21.60;;
60919;SDS011;59039;52.108;19.942;2022-12-01T00:11:19;43.60;;;20.50;;
60919;SDS011;59039;52.108;19.942;2022-12-01T00:13:44;45.70;;;21.40;;
60919;SDS011;59039;52.108;19.942;2022-12-01T00:16:10;48.60;;;21.20;;
60919;SDS011;59039;52.108;19.942;2022-12-01T00:18:36;40.80;;;19.00;;
60919;SDS011;59039;52.108;19.942;2022-12-01T00:21:01;48.40;;;20.70;;
60919;SDS011;59039;52.108;19.942;2022-12-01T00:23:27;43.30;;;19.40;;
60919;SDS011;59039;52.108;19.942;2022-12-01T00:25:52;34.10;;;17.00;;
60919;SDS011;59039;52.108;19.942;2022-12-01T00:28:17;45.80;;;19.60;;
60919;SDS011;59039;52.108;19.942;2022-12-01T00:30:42;49.80;;;21.40;;
60919;SDS011;59039;52.108;19.942;2022-12-01T00:33:07;43.30;;;18.90;;
60919;SDS011;59039;52.108;19.942;2022-12-01T00:35:33;37.90;;;19.30;;
60919;SDS011;59039;52.108;19.942;2022-12-01T00:37:58;44.40;;;20.90;;
60919;SDS011;59039;52.108;19.942;2022-12-01T00:40:23;36.40;;;18.20;;
60919;SDS011;59039;52.108;19.942;2022-12-01T00:42:48;40.10;;;19.40;;
60919;SDS011;59039;52.108;19.942;2022-12-01T00:45:13;40.30;;;18.60;;
60919;SDS011;59039;52.108;19.942;2022-12-01T00:47:38;42.10;;;19.30;;
60919;SDS011;59039;52.108;19.942;2022-12-01T00:50:04;37.70;;;17.70;;
60919;SDS011;59039;52.108;19.942;2022-12-01T00:52:29;37.80;;;18.30;;
60919;SDS011;59039;52.108;19.942;2022-12-01T00:54:54;28.80;;;15.80;;
60919;SDS011;59039;52.108;19.942;2022-12-01T00:57:19;39.50;;;17.40;;
60919;SDS011;59039;52.108;19.942;2022-12-01T00:59:45;39.40;;;19.00;;
60919;SDS011;59039;52.108;19.942;2022-12-01T01:02:10;35.70;;;17.60;;
60919;SDS011;59039;52.108;19.942;2022-12-01T01:04:35;37.10;;;18.50;;
60919;SDS011;59039;52.108;19.942;2022-12-01T01:07:01;36.90;;;17.40;;
60919;SDS011;59039;52.108;19.942;2022-12-01T01:09:26;39.10;;;17.60;;
60919;SDS011;59039;52.108;19.942;2022-12-01T01:11:52;36.40;;;16.80;;
60919;SDS011;59039;52.108;19.942;2022-12-01T01:14:17;34.90;;;17.20;;
60919;SDS011;59039;52.108;19.942;2022-12-01T01:16:43;40.30;;;17.50;;
60919;SDS011;59039;52.108;19.942;2022-12-01T01:19:08;36.70;;;16.90;;
60919;SDS011;59039;52.108;19.942;2022-12-01T01:21:33;32.60;;;17.20;;
60919;SDS011;59039;52.108;19.942;2022-12-01T01:23:58;35.90;;;16.70;;
60919;SDS011;59039;52.108;19.942;2022-12-01T01:26:25;37.20;;;17.80;;
60919;SDS011;59039;52.108;19.942;2022-12-01T01:28:52;36.50;;;18.20;;
60919;SDS011;59039;52.108;19.942;2022-12-01T01:31:20;36.40;;;18.00;;
60919;SDS011;59039;52.108;19.942;2022-12-01T01:33:47;39.70;;;18.80;;
60919;SDS011;59039;52.108;19.942;2022-12-01T01:36:14;40.40;;;18.00;;
60919;SDS011;59039;52.108;19.942;2022-12-01T01:38:40;33.90;;;17.50;;
60919;SDS011;59039;52.108;19.942;2022-12-01T01:41:06;36.50;;;17.90;;
60919;SDS011;59039;52.108;19.942;2022-12-01T01:43:45;30.50;;;15.20;;
60919;SDS011;59039;52.108;19.942;2022-12-01T01:46:13;31.20;;;15.90;;
60919;SDS011;59039;52.108;19.942;2022-12-01T01:48:41;33.60;;;15.90;;
60919;SDS011;59039;52.108;19.942;2022-12-01T01:51:11;36.30;;;15.40;;
60919;SDS011;59039;52.108;19.942;2022-12-01T01:53:38;33.50;;;16.40;;
60919;SDS011;59039;52.108;19.942;2022-12-01T01:56:05;30.90;;;16.00;;
60919;SDS011;59039;52.108;19.942;2022-12-01T01:58:32;34.20;;;16.70;;
60919;SDS011;59039;52.108;19.942;2022-12-01T02:00:57;37.90;;;16.20;;
60919;SDS011;59039;52.108;19.942;2022-12-01T02:03:23;35.50;;;17.30;;
60919;SDS011;59039;52.108;19.942;2022-12-01T02:05:48;29.90;;;15.90;;
60919;SDS011;59039;52.108;19.942;2022-12-01T02:08:14;33.90;;;16.20;;
60919;SDS011;59039;52.108;19.942;2022-12-01T02:13:35;30.00;;;14.30;;
60919;SDS011;59039;52.108;19.942;2022-12-01T02:16:21;30.90;;;14.50;;
60919;SDS011;59039;52.108;19.942;2022-12-01T02:21:45;32.30;;;15.40;;
60919;SDS011;59039;52.108;19.942;2022-12-01T02:30:40;25.50;;;14.00;;
60919;SDS011;59039;52.108;19.942;2022-12-01T02:35:50;26.30;;;13.30;;
60919;SDS011;59039;52.108;19.942;2022-12-01T02:38:24;38.00;;;16.40;;
60919;SDS011;59039;52.108;19.942;2022-12-01T02:41:27;35.70;;;16.30;;
60919;SDS011;59039;52.108;19.942;2022-12-01T02:43:52;36.60;;;15.80;;
60919;SDS011;59039;52.108;19.942;2022-12-01T02:46:26;34.60;;;15.70;;
60919;SDS011;59039;52.108;19.942;2022-12-01T02:49:00;34.80;;;15.90;;
60919;SDS011;59039;52.108;19.942;2022-12-01T02:51:29;32.30;;;16.10;;
60919;SDS011;59039;52.108;19.942;2022-12-01T02:53:57;32.00;;;15.70;;
60919;SDS011;59039;52.108;19.942;2022-12-01T02:56:23;33.10;;;14.00;;
60919;SDS011;59039;52.108;19.942;2022-12-01T02:58:48;31.10;;;15.70;;
60919;SDS011;59039;52.108;19.942;2022-12-01T03:01:23;29.60;;;15.00;;
60919;SDS011;59039;52.108;19.942;2022-12-01T03:13:29;45.30;;;25.10;;
60919;SDS011;59039;52.108;19.942;2022-12-01T03:18:08;113.40;;;65.80;;
60919;SDS011;59039;52.108;19.942;2022-12-01T03:20:58;80.20;;;35.80;;
60919;SDS011;59039;52.108;19.942;2022-12-01T03:23:38;42.20;;;22.50;;
60919;SDS011;59039;52.108;19.942;2022-12-01T03:26:13;45.20;;;23.90;;
60919;SDS011;59039;52.108;19.942;2022-12-01T03:28:44;47.30;;;23.50;;
60919;SDS011;59039;52.108;19.942;2022-12-01T03:31:14;43.70;;;22.00;;
60919;SDS011;59039;52.108;19.942;2022-12-01T03:34:04;37.80;;;19.90;;
60919;SDS011;59039;52.108;19.942;2022-12-01T03:36:41;47.00;;;22.60;;
60919;SDS011;59039;52.108;19.942;2022-12-01T03:39:10;49.10;;;23.50;;
60919;SDS011;59039;52.108;19.942;2022-12-01T03:41:41;46.70;;;21.70;;
60919;SDS011;59039;52.108;19.942;2022-12-01T03:44:13;59.60;;;24.30;;
60919;SDS011;59039;52.108;19.942;2022-12-01T03:49:16;63.90;;;26.70;;
60919;SDS011;59039;52.108;19.942;2022-12-01T03:54:21;38.50;;;22.30;;
60919;SDS011;59039;52.108;19.942;2022-12-01T03:56:54;35.70;;;19.30;;
60919;SDS011;59039;52.108;19.942;2022-12-01T03:59:24;44.10;;;19.40;;
60919;SDS011;59039;52.108;19.942;2022-12-01T04:01:51;37.80;;;19.20;;
60919;SDS011;59039;52.108;19.942;2022-12-01T04:04:16;39.60;;;18.80;;
60919;SDS011;59039;52.108;19.942;2022-12-01T04:06:43;42.30;;;19.10;;
60919;SDS011;59039;52.108;19.942;2022-12-01T04:09:11;37.70;;;17.30;;
60919;SDS011;59039;52.108;19.942;2022-12-01T04:11:36;38.90;;;18.10;;
60919;SDS011;59039;52.108;19.942;2022-12-01T04:14:01;44.40;;;18.10;;
60919;SDS011;59039;52.108;19.942;2022-12-01T04:16:26;36.10;;;17.90;;
60919;SDS011;59039;52.108;19.942;2022-12-01T04:18:52;39.10;;;18.50;;
60919;SDS011;59039;52.108;19.942;2022-12-01T04:21:17;39.70;;;17.60;;
60919;SDS011;59039;52.108;19.942;2022-12-01T04:23:42;38.30;;;17.50;;
60919;SDS011;59039;52.108;19.942;2022-12-01T04:26:07;48.40;;;22.50;;
60919;SDS011;59039;52.108;19.942;2022-12-01T04:28:32;42.00;;;18.20;;
60919;SDS011;59039;52.108;19.942;2022-12-01T04:30:57;35.10;;;16.90;;
60919;SDS011;59039;52.108;19.942;2022-12-01T04:33:23;40.80;;;17.70;;
60919;SDS011;59039;52.108;19.942;2022-12-01T04:35:57;39.10;;;19.60;;
60919;SDS011;59039;52.108;19.942;2022-12-01T04:38:23;46.60;;;21.10;;
60919;SDS011;59039;52.108;19.942;2022-12-01T04:40:49;39.80;;;18.50;;
60919;SDS011;59039;52.108;19.942;2022-12-01T04:43:14;39.20;;;18.20;;
60919;SDS011;59039;52.108;19.942;2022-12-01T04:45:39;39.40;;;17.00;;
60919;SDS011;59039;52.108;19.942;2022-12-01T04:48:05;42.80;;;22.40;;
60919;SDS011;59039;52.108;19.942;2022-12-01T04:50:30;40.80;;;20.10;;
60919;SDS011;59039;52.108;19.942;2022-12-01T04:52:55;41.90;;;18.30;;
60919;SDS011;59039;52.108;19.942;2022-12-01T04:55:20;39.90;;;18.00;;
60919;SDS011;59039;52.108;19.942;2022-12-01T04:57:45;45.40;;;20.50;;
60919;SDS011;59039;52.108;19.942;2022-12-01T05:00:11;41.10;;;19.30;;
60919;SDS011;59039;52.108;19.942;2022-12-01T05:02:37;39.90;;;20.40;;
60919;SDS011;59039;52.108;19.942;2022-12-01T05:05:03;35.20;;;17.50;;
60919;SDS011;59039;52.108;19.942;2022-12-01T05:07:29;41.10;;;18.40;;
60919;SDS011;59039;52.108;19.942;2022-12-01T05:09:54;36.00;;;19.00;;
60919;SDS011;59039;52.108;19.942;2022-12-01T05:12:19;45.30;;;19.20;;
60919;SDS011;59039;52.108;19.942;2022-12-01T05:14:44;35.10;;;17.90;;
60919;SDS011;59039;52.108;19.942;2022-12-01T05:17:09;41.40;;;18.20;;
60919;SDS011;59039;52.108;19.942;2022-12-01T05:19:35;41.60;;;19.40;;
60919;SDS011;59039;52.108;19.942;2022-12-01T05:22:00;41.30;;;19.50;;
60919;SDS011;59039;52.108;19.942;2022-12-01T05:24:25;48.70;;;22.80;;
60919;SDS011;59039;52.108;19.942;2022-12-01T05:26:50;49.50;;;22.60;;
60919;SDS011;59039;52.108;19.942;2022-12-01T05:29:15;39.50;;;20.10;;
60919;SDS011;59039;52.108;19.942;2022-12-01T05:31:41;73.10;;;37.00;;
60919;SDS011;59039;52.108;19.942;2022-12-01T05:34:06;78.70;;;34.90;;
60919;SDS011;59039;52.108;19.942;2022-12-01T05:36:32;61.20;;;26.20;;
60919;SDS011;59039;52.108;19.942;2022-12-01T05:38:57;49.60;;;22.80;;
60919;SDS011;59039;52.108;19.942;2022-12-01T05:41:22;60.00;;;23.70;;
60919;SDS011;59039;52.108;19.942;2022-12-01T05:43:47;41.30;;;20.00;;
60919;SDS011;59039;52.108;19.942;2022-12-01T05:46:13;51.20;;;22.10;;
60919;SDS011;59039;52.108;19.942;2022-12-01T05:48:38;42.10;;;19.70;;
60919;SDS011;59039;52.108;19.942;2022-12-01T05:51:07;47.40;;;21.70;;
60919;SDS011;59039;52.108;19.942;2022-12-01T05:53:33;43.80;;;20.10;;
60919;SDS011;59039;52.108;19.942;2022-12-01T05:55:58;45.40;;;20.50;;
60919;SDS011;59039;52.108;19.942;2022-12-01T05:58:23;44.40;;;20.50;;
60919;SDS011;59039;52.108;19.942;2022-12-01T06:00:49;42.70;;;20.60;;
60919;SDS011;59039;52.108;19.942;2022-12-01T06:03:14;43.70;;;21.00;;
60919;SDS011;59039;52.108;19.942;2022-12-01T06:05:39;38.90;;;18.20;;
60919;SDS011;59039;52.108;19.942;2022-12-01T06:08:05;38.70;;;16.90;;
60919;SDS011;59039;52.108;19.942;2022-12-01T06:10:30;38.00;;;17.30;;
60919;SDS011;59039;52.108;19.942;2022-12-01T06:12:55;44.80;;;20.40;;
60919;SDS011;59039;52.108;19.942;2022-12-01T06:15:20;40.70;;;19.50;;
60919;SDS011;59039;52.108;19.942;2022-12-01T06:17:45;41.70;;;20.40;;
60919;SDS011;59039;52.108;19.942;2022-12-01T06:20:11;35.90;;;17.50;;
60919;SDS011;59039;52.108;19.942;2022-12-01T06:22:36;45.10;;;20.30;;
60919;SDS011;59039;52.108;19.942;2022-12-01T06:25:01;40.00;;;18.60;;
60919;SDS011;59039;52.108;19.942;2022-12-01T06:27:27;38.60;;;18.50;;
60919;SDS011;59039;52.108;19.942;2022-12-01T06:29:52;36.60;;;18.50;;
60919;SDS011;59039;52.108;19.942;2022-12-01T06:32:17;42.70;;;20.10;;
60919;SDS011;59039;52.108;19.942;2022-12-01T06:34:43;41.40;;;18.30;;
60919;SDS011;59039;52.108;19.942;2022-12-01T06:37:08;38.80;;;18.50;;
60919;SDS011;59039;52.108;19.942;2022-12-01T06:39:34;43.80;;;20.40;;
60919;SDS011;59039;52.108;19.942;2022-12-01T06:42:00;37.90;;;18.50;;
60919;SDS011;59039;52.108;19.942;2022-12-01T06:44:25;38.30;;;19.30;;
60919;SDS011;59039;52.108;19.942;2022-12-01T06:46:50;42.30;;;19.10;;
60919;SDS011;59039;52.108;19.942;2022-12-01T06:49:15;43.80;;;21.20;;
60919;SDS011;59039;52.108;19.942;2022-12-01T06:51:41;45.30;;;21.10;;
60919;SDS011;59039;52.108;19.942;2022-12-01T06:54:06;43.70;;;20.70;;
60919;SDS011;59039;52.108;19.942;2022-12-01T06:56:31;56.30;;;23.30;;
60919;SDS011;59039;52.108;19.942;2022-12-01T06:58:56;59.90;;;26.90;;
60919;SDS011;59039;52.108;19.942;2022-12-01T07:01:21;60.00;;;26.70;;
60919;SDS011;59039;52.108;19.942;2022-12-01T07:03:47;72.80;;;28.90;;
60919;SDS011;59039;52.108;19.942;2022-12-01T07:06:14;70.40;;;24.80;;
60919;SDS011;59039;52.108;19.942;2022-12-01T07:08:39;59.80;;;23.00;;
60919;SDS011;59039;52.108;19.942;2022-12-01T07:11:05;59.10;;;23.00;;
60919;SDS011;59039;52.108;19.942;2022-12-01T07:13:32;57.20;;;24.30;;
60919;SDS011;59039;52.108;19.942;2022-12-01T07:15:57;61.20;;;24.30;;
60919;SDS011;59039;52.108;19.942;2022-12-01T07:18:22;53.20;;;22.70;;
60919;SDS011;59039;52.108;19.942;2022-12-01T07:20:48;53.00;;;23.00;;
60919;SDS011;59039;52.108;19.942;2022-12-01T07:23:13;54.20;;;23.50;;
60919;SDS011;59039;52.108;19.942;2022-12-01T07:25:38;88.10;;;36.90;;
60919;SDS011;59039;52.108;19.942;2022-12-01T07:28:04;112.10;;;43.20;;
60919;SDS011;59039;52.108;19.942;2022-12-01T07:30:29;80.50;;;30.60;;
60919;SDS011;59039;52.108;19.942;2022-12-01T07:32:54;64.00;;;24.60;;
60919;SDS011;59039;52.108;19.942;2022-12-01T07:35:19;47.90;;;22.10;;
60919;SDS011;59039;52.108;19.942;2022-12-01T07:37:44;59.90;;;25.70;;
60919;SDS011;59039;52.108;19.942;2022-12-01T07:40:10;46.30;;;22.50;;
60919;SDS011;59039;52.108;19.942;2022-12-01T07:42:35;48.00;;;21.90;;
60919;SDS011;59039;52.108;19.942;2022-12-01T07:45:04;61.60;;;24.10;;
60919;SDS011;59039;52.108;19.942;2022-12-01T07:47:29;57.10;;;24.20;;
60919;SDS011;59039;52.108;19.942;2022-12-01T07:49:55;49.90;;;22.70;;
60919;SDS011;59039;52.108;19.942;2022-12-01T07:52:20;53.80;;;22.00;;
60919;SDS011;59039;52.108;19.942;2022-12-01T07:54:45;55.90;;;24.00;;
60919;SDS011;59039;52.108;19.942;2022-12-01T07:57:10;49.80;;;23.00;;
60919;SDS011;59039;52.108;19.942;2022-12-01T07:59:35;45.80;;;21.80;;
60919;SDS011;59039;52.108;19.942;2022-12-01T08:02:00;59.10;;;26.80;;
60919;SDS011;59039;52.108;19.942;2022-12-01T08:04:26;56.00;;;25.00;;
60919;SDS011;59039;52.108;19.942;2022-12-01T08:06:51;49.50;;;22.10;;
60919;SDS011;59039;52.108;19.942;2022-12-01T08:09:16;43.20;;;20.20;;
60919;SDS011;59039;52.108;19.942;2022-12-01T08:11:41;43.50;;;19.00;;
60919;SDS011;59039;52.108;19.942;2022-12-01T08:14:06;46.20;;;21.30;;
60919;SDS011;59039;52.108;19.942;2022-12-01T08:16:32;48.20;;;22.50;;
60919;SDS011;59039;52.108;19.942;2022-12-01T08:18:57;48.00;;;22.00;;
60919;SDS011;59039;52.108;19.942;2022-12-01T08:21:22;44.80;;;21.40;;
60919;SDS011;59039;52.108;19.942;2022-12-01T08:23:51;52.70;;;22.70;;
60919;SDS011;59039;52.108;19.942;2022-12-01T08:26:18;49.70;;;22.00;;
60919;SDS011;59039;52.108;19.942;2022-12-01T08:28:43;45.10;;;21.90;;
60919;SDS011;59039;52.108;19.942;2022-12-01T08:31:10;45.40;;;21.60;;
60919;SDS011;59039;52.108;19.942;2022-12-01T08:33:44;47.80;;;21.90;;
60919;SDS011;59039;52.108;19.942;2022-12-01T08:36:10;40.80;;;19.90;;
60919;SDS011;59039;52.108;19.942;2022-12-01T08:38:35;46.90;;;20.70;;
60919;SDS011;59039;52.108;19.942;2022-12-01T08:41:01;53.10;;;22.40;;
60919;SDS011;59039;52.108;19.942;2022-12-01T08:43:31;45.90;;;22.10;;
60919;SDS011;59039;52.108;19.942;2022-12-01T08:46:00;47.70;;;23.60;;
60919;SDS011;59039;52.108;19.942;2022-12-01T08:48:25;49.20;;;21.60;;
60919;SDS011;59039;52.108;19.942;2022-12-01T08:50:51;42.60;;;19.20;;
60919;SDS011;59039;52.108;19.942;2022-12-01T08:53:16;47.30;;;21.70;;
60919;SDS011;59039;52.108;19.942;2022-12-01T08:55:41;52.10;;;23.00;;
60919;SDS011;59039;52.108;19.942;2022-12-01T08:58:07;45.40;;;22.10;;
60919;SDS011;59039;52.108;19.942;2022-12-01T09:00:32;38.90;;;20.00;;
60919;SDS011;59039;52.108;19.942;2022-12-01T09:02:57;53.90;;;22.10;;
60919;SDS011;59039;52.108;19.942;2022-12-01T09:05:22;47.10;;;22.30;;
60919;SDS011;59039;52.108;19.942;2022-12-01T09:07:48;50.50;;;23.80;;
60919;SDS011;59039;52.108;19.942;2022-12-01T09:10:13;50.20;;;24.40;;
60919;SDS011;59039;52.108;19.942;2022-12-01T09:12:38;47.80;;;22.10;;
60919;SDS011;59039;52.108;19.942;2022-12-01T09:15:03;43.10;;;20.60;;
60919;SDS011;59039;52.108;19.942;2022-12-01T09:17:29;48.50;;;21.90;;
60919;SDS011;59039;52.108;19.942;2022-12-01T09:19:54;48.00;;;22.10;;
60919;SDS011;59039;52.108;19.942;2022-12-01T09:22:19;53.40;;;23.70;;
60919;SDS011;59039;52.108;19.942;2022-12-01T09:24:45;48.10;;;21.80;;
60919;SDS011;59039;52.108;19.942;2022-12-01T09:27:10;55.20;;;23.60;;
60919;SDS011;59039;52.108;19.942;2022-12-01T09:29:35;55.50;;;25.60;;
60919;SDS011;59039;52.108;19.942;2022-12-01T09:32:00;48.90;;;23.70;;
60919;SDS011;59039;52.108;19.942;2022-12-01T09:34:26;57.00;;;23.90;;
60919;SDS011;59039;52.108;19.942;2022-12-01T09:36:53;63.00;;;24.90;;
60919;SDS011;59039;52.108;19.942;2022-12-01T09:39:19;65.40;;;28.10;;
60919;SDS011;59039;52.108;19.942;2022-12-01T09:41:46;56.10;;;24.90;;
60919;SDS011;59039;52.108;19.942;2022-12-01T09:52:23;66.50;;;28.40;;
60919;SDS011;59039;52.108;19.942;2022-12-01T09:54:50;57.90;;;24.40;;
60919;SDS011;59039;52.108;19.942;2022-12-01T09:57:33;56.60;;;24.60;;
60919;SDS011;59039;52.108;19.942;2022-12-01T10:00:03;48.90;;;21.30;;
60919;SDS011;59039;52.108;19.942;2022-12-01T10:05:00;57.00;;;23.30;;
60919;SDS011;59039;52.108;19.942;2022-12-01T10:07:30;53.30;;;23.50;;
60919;SDS011;59039;52.108;19.942;2022-12-01T10:10:17;71.80;;;30.50;;
60919;SDS011;59039;52.108;19.942;2022-12-01T10:12:54;58.90;;;24.50;;
60919;SDS011;59039;52.108;19.942;2022-12-01T10:15:29;51.00;;;23.10;;
60919;SDS011;59039;52.108;19.942;2022-12-01T10:21:15;48.00;;;22.20;;
60919;SDS011;59039;52.108;19.942;2022-12-01T10:26:51;63.10;;;26.50;;
60919;SDS011;59039;52.108;19.942;2022-12-01T10:29:47;81.00;;;35.50;;
60919;SDS011;59039;52.108;19.942;2022-12-01T10:32:17;62.30;;;25.70;;
60919;SDS011;59039;52.108;19.942;2022-12-01T10:34:47;74.20;;;30.70;;
60919;SDS011;59039;52.108;19.942;2022-12-01T10:37:30;68.20;;;28.50;;
60919;SDS011;59039;52.108;19.942;2022-12-01T10:39:56;54.40;;;23.40;;
60919;SDS011;59039;52.108;19.942;2022-12-01T10:42:33;53.20;;;23.70;;
60919;SDS011;59039;52.108;19.942;2022-12-01T10:45:04;54.70;;;23.20;;
60919;SDS011;59039;52.108;19.942;2022-12-01T10:47:31;55.60;;;23.70;;
60919;SDS011;59039;52.108;19.942;2022-12-01T10:49:57;53.40;;;21.60;;
60919;SDS011;59039;52.108;19.942;2022-12-01T10:55:00;52.40;;;22.50;;
60919;SDS011;59039;52.108;19.942;2022-12-01T10:57:26;54.80;;;24.60;;
60919;SDS011;59039;52.108;19.942;2022-12-01T11:00:00;50.50;;;24.50;;
60919;SDS011;59039;52.108;19.942;2022-12-01T11:02:29;55.80;;;22.80;;
60919;SDS011;59039;52.108;19.942;2022-12-01T11:04:57;49.10;;;22.90;;
60919;SDS011;59039;52.108;19.942;2022-12-01T11:07:30;50.10;;;21.30;;
60919;SDS011;59039;52.108;19.942;2022-12-01T11:10:16;44.00;;;20.70;;
60919;SDS011;59039;52.108;19.942;2022-12-01T11:13:01;55.60;;;24.50;;
60919;SDS011;59039;52.108;19.942;2022-12-01T11:15:50;41.90;;;20.10;;
60919;SDS011;59039;52.108;19.942;2022-12-01T11:20:46;48.10;;;21.50;;
60919;SDS011;59039;52.108;19.942;2022-12-01T11:25:54;57.50;;;25.70;;
60919;SDS011;59039;52.108;19.942;2022-12-01T11:28:29;56.80;;;24.40;;
60919;SDS011;59039;52.108;19.942;2022-12-01T11:30:57;59.70;;;24.40;;
60919;SDS011;59039;52.108;19.942;2022-12-01T11:33:25;52.50;;;21.20;;
60919;SDS011;59039;52.108;19.942;2022-12-01T11:35:52;46.00;;;21.80;;
60919;SDS011;59039;52.108;19.942;2022-12-01T11:38:20;55.70;;;25.80;;
60919;SDS011;59039;52.108;19.942;2022-12-01T11:40:56;51.40;;;23.70;;
60919;SDS011;59039;52.108;19.942;2022-12-01T11:43:29;55.10;;;27.60;;
60919;SDS011;59039;52.108;19.942;2022-12-01T11:46:03;55.00;;;24.20;;
60919;SDS011;59039;52.108;19.942;2022-12-01T11:48:31;73.90;;;29.10;;
60919;SDS011;59039;52.108;19.942;2022-12-01T11:51:26;58.40;;;28.90;;
60919;SDS011;59039;52.108;19.942;2022-12-01T11:54:12;56.00;;;27.40;;
60919;SDS011;59039;52.108;19.942;2022-12-01T11:56:50;64.10;;;27.30;;
60919;SDS011;59039;52.108;19.942;2022-12-01T11:59:20;57.00;;;28.70;;
60919;SDS011;59039;52.108;19.942;2022-12-01T12:07:34;44.60;;;20.30;;
60919;SDS011;59039;52.108;19.942;2022-12-01T12:10:37;43.90;;;19.40;;
60919;SDS011;59039;52.108;19.942;2022-12-01T12:13:34;48.40;;;23.10;;
60919;SDS011;59039;52.108;19.942;2022-12-01T12:19:05;52.40;;;23.50;;
60919;SDS011;59039;52.108;19.942;2022-12-01T12:21:41;46.50;;;22.70;;
60919;SDS011;59039;52.108;19.942;2022-12-01T12:38:15;45.20;;;20.60;;
60919;SDS011;59039;52.108;19.942;2022-12-01T12:43:22;38.10;;;18.40;;
60919;SDS011;59039;52.108;19.942;2022-12-01T12:51:42;41.50;;;19.80;;
60919;SDS011;59039;52.108;19.942;2022-12-01T12:54:32;46.70;;;21.50;;
60919;SDS011;59039;52.108;19.942;2022-12-01T12:57:06;47.00;;;21.00;;
60919;SDS011;59039;52.108;19.942;2022-12-01T12:59:44;57.50;;;25.20;;
60919;SDS011;59039;52.108;19.942;2022-12-01T13:02:23;74.90;;;32.70;;
60919;SDS011;59039;52.108;19.942;2022-12-01T13:05:07;71.80;;;31.00;;
60919;SDS011;59039;52.108;19.942;2022-12-01T13:07:50;70.60;;;30.20;;
60919;SDS011;59039;52.108;19.942;2022-12-01T13:12:55;54.00;;;25.70;;
60919;SDS011;59039;52.108;19.942;2022-12-01T13:15:26;54.80;;;27.60;;
60919;SDS011;59039;52.108;19.942;2022-12-01T13:17:56;58.80;;;27.40;;
60919;SDS011;59039;52.108;19.942;2022-12-01T13:20:26;48.20;;;22.10;;
60919;SDS011;59039;52.108;19.942;2022-12-01T13:22:54;55.60;;;26.60;;
60919;SDS011;59039;52.108;19.942;2022-12-01T13:25:24;60.10;;;27.50;;
60919;SDS011;59039;52.108;19.942;2022-12-01T13:27:54;56.10;;;27.50;;
60919;SDS011;59039;52.108;19.942;2022-12-01T13:30:22;65.60;;;27.70;;
60919;SDS011;59039;52.108;19.942;2022-12-01T13:32:56;59.70;;;26.90;;
60919;SDS011;59039;52.108;19.942;2022-12-01T13:35:24;58.70;;;27.50;;
60919;SDS011;59039;52.108;19.942;2022-12-01T13:38:15;50.60;;;23.90;;
60919;SDS011;59039;52.108;19.942;2022-12-01T13:40:42;47.10;;;22.70;;
60919;SDS011;59039;52.108;19.942;2022-12-01T13:43:14;46.00;;;23.70;;
60919;SDS011;59039;52.108;19.942;2022-12-01T13:45:43;50.50;;;23.20;;
60919;SDS011;59039;52.108;19.942;2022-12-01T13:51:13;51.00;;;23.30;;
60919;SDS011;59039;52.108;19.942;2022-12-01T13:53:51;46.10;;;23.00;;
60919;SDS011;59039;52.108;19.942;2022-12-01T13:56:24;55.70;;;23.00;;
60919;SDS011;59039;52.108;19.942;2022-12-01T13:58:59;50.80;;;23.50;;
60919;SDS011;59039;52.108;19.942;2022-12-01T14:09:00;65.20;;;24.80;;
60919;SDS011;59039;52.108;19.942;2022-12-01T14:11:30;49.90;;;20.00;;
60919;SDS011;59039;52.108;19.942;2022-12-01T14:20:02;183.00;;;45.40;;
60919;SDS011;59039;52.108;19.942;2022-12-01T14:24:58;57.40;;;22.70;;
60919;SDS011;59039;52.108;19.942;2022-12-01T14:27:35;57.10;;;24.40;;
60919;SDS011;59039;52.108;19.942;2022-12-01T14:36:04;81.10;;;28.90;;
60919;SDS011;59039;52.108;19.942;2022-12-01T14:38:31;57.90;;;22.70;;
60919;SDS011;59039;52.108;19.942;2022-12-01T14:40:57;62.70;;;25.30;;
60919;SDS011;59039;52.108;19.942;2022-12-01T14:43:23;71.60;;;30.00;;
60919;SDS011;59039;52.108;19.942;2022-12-01T14:46:07;82.90;;;35.20;;
60919;SDS011;59039;52.108;19.942;2022-12-01T14:48:40;93.00;;;37.90;;
60919;SDS011;59039;52.108;19.942;2022-12-01T14:51:09;75.40;;;31.50;;
60919;SDS011;59039;52.108;19.942;2022-12-01T14:53:36;95.00;;;37.90;;
60919;SDS011;59039;52.108;19.942;2022-12-01T14:56:13;92.00;;;35.50;;
60919;SDS011;59039;52.108;19.942;2022-12-01T14:58:59;77.30;;;31.70;;
60919;SDS011;59039;52.108;19.942;2022-12-01T15:01:34;65.20;;;27.40;;
60919;SDS011;59039;52.108;19.942;2022-12-01T15:04:03;69.60;;;28.40;;
60919;SDS011;59039;52.108;19.942;2022-12-01T15:06:30;63.40;;;26.10;;
60919;SDS011;59039;52.108;19.942;2022-12-01T15:12:18;62.60;;;25.40;;
60919;SDS011;59039;52.108;19.942;2022-12-01T15:14:47;61.10;;;25.80;;
60919;SDS011;59039;52.108;19.942;2022-12-01T15:17:34;60.40;;;26.10;;
60919;SDS011;59039;52.108;19.942;2022-12-01T15:19:59;58.60;;;25.70;;
60919;SDS011;59039;52.108;19.942;2022-12-01T15:22:30;72.60;;;28.20;;
60919;SDS011;59039;52.108;19.942;2022-12-01T15:25:04;63.90;;;26.30;;
60919;SDS011;59039;52.108;19.942;2022-12-01T15:27:39;72.00;;;26.90;;
60919;SDS011;59039;52.108;19.942;2022-12-01T15:30:08;65.90;;;27.50;;
60919;SDS011;59039;52.108;19.942;2022-12-01T15:32:37;67.70;;;28.90;;
60919;SDS011;59039;52.108;19.942;2022-12-01T15:35:03;63.90;;;28.30;;
60919;SDS011;59039;52.108;19.942;2022-12-01T15:37:29;80.20;;;31.50;;
60919;SDS011;59039;52.108;19.942;2022-12-01T15:40:06;77.20;;;31.40;;
60919;SDS011;59039;52.108;19.942;2022-12-01T15:42:34;74.30;;;30.70;;
60919;SDS011;59039;52.108;19.942;2022-12-01T15:45:19;82.60;;;31.50;;
60919;SDS011;59039;52.108;19.942;2022-12-01T15:47:46;72.00;;;29.90;;
60919;SDS011;59039;52.108;19.942;2022-12-01T15:50:29;58.10;;;26.10;;
60919;SDS011;59039;52.108;19.942;2022-12-01T15:52:58;64.80;;;29.00;;
60919;SDS011;59039;52.108;19.942;2022-12-01T15:55:27;65.30;;;28.80;;
60919;SDS011;59039;52.108;19.942;2022-12-01T15:57:58;67.00;;;28.30;;
60919;SDS011;59039;52.108;19.942;2022-12-01T16:00:24;63.80;;;25.40;;
60919;SDS011;59039;52.108;19.942;2022-12-01T16:02:51;77.40;;;28.60;;
60919;SDS011;59039;52.108;19.942;2022-12-01T16:05:19;77.90;;;30.60;;
60919;SDS011;59039;52.108;19.942;2022-12-01T16:07:52;70.40;;;29.50;;
60919;SDS011;59039;52.108;19.942;2022-12-01T16:10:29;63.30;;;27.00;;
60919;SDS011;59039;52.108;19.942;2022-12-01T16:18:59;77.10;;;29.20;;
60919;SDS011;59039;52.108;19.942;2022-12-01T16:21:27;70.80;;;28.80;;
60919;SDS011;59039;52.108;19.942;2022-12-01T16:23:58;69.40;;;28.20;;